Terminal Aerodrome Forecast
Issued by NWS

Home | Current Version | Previous Version | Text Only | Print | Product List | Glossary On
Versions: 1 2 3 4 5 6 7 8 9 10 11 12 13 14 15 16 17 18 19 20
000
FTUS41 KPBZ 282321
TAFBVI
TAF
KBVI 282321Z 2900/2924 34008KT P6SM BKN010
     FM290200 34008KT P6SM BKN008
     FM291300 36005KT P6SM BKN015
     FM291500 36010KT P6SM SCT150
      AMD NOT SKED 2902/2912=

USA.gov is the U.S. government's official web portal to all federal, state and local government web resources and services.